FW2463 Le Neubourg FR current weather conditions

sailwx.info

Wind from 320 at 3 knots gusting 6

Air temperature 29.4° C
Dewpoint 16.6° C

Last reported at 2020-Aug-10 18:57 UTC.
Time now 2020-Aug-10 19:20 UTC

Location: N 49°09' E 000°55'.
View on Google Maps.

See reports from other nearby stations

  
Tides and Currents Weather Stations Pressure Air Temp Water Temp Dewpoint Dewpoint Depression Visibility Wind Speed Wind Dir Waves Ship Positions
date/time (UTC)wind fromknots sea level pressurealtimeterstation pressurevisibilityair tempwater tempwave heightnotes
2020-Aug-10 18:57 320 3 gusting 6 29.4
2020-Aug-10 18:48 317 2 gusting 6 29.4
2020-Aug-10 18:39 002 30.0
2020-Aug-10 18:30 026 30.6
2020-Aug-10 18:21 30.6
2020-Aug-10 18:12 060 31.1
2020-Aug-10 18:03 070 0 gusting 2 31.1
2020-Aug-10 17:54 057 1 gusting 3 31.7
2020-Aug-10 17:45 079 1 gusting 5 32.2
2020-Aug-10 17:36 054 0 gusting 3 32.2
2020-Aug-10 17:27 082 3 gusting 8 32.8
2020-Aug-10 17:18 073 3 gusting 6 33.3
2020-Aug-10 17:09 076 3 gusting 9 33.9
2020-Aug-10 17:00 061 1 gusting 6 33.9
2020-Aug-10 16:51 064 2 gusting 6 33.3
2020-Aug-10 16:42 065 2 gusting 6 32.8
2020-Aug-10 16:33 057 1 gusting 5 32.8
2020-Aug-10 16:24 049 1 gusting 5 32.8
2020-Aug-10 16:15 063 1 gusting 6 33.3
2020-Aug-10 16:06 081 2 gusting 6 33.3
2020-Aug-10 15:57 063 1 gusting 5 33.9
2020-Aug-10 15:48 061 1 gusting 5 34.4
2020-Aug-10 15:39 078 2 gusting 7 34.4
2020-Aug-10 15:30 056 1 gusting 5 34.4
2020-Aug-10 15:21 061 2 gusting 7 35.0
2020-Aug-10 15:12 060 2 gusting 5 35.6
2020-Aug-10 15:03 034 3 gusting 7 35.6
2020-Aug-10 14:54 052 2 gusting 6 35.0
2020-Aug-10 14:45 074 2 gusting 5 35.0
2020-Aug-10 14:36 040 2 gusting 5 34.4
2020-Aug-10 14:27 032 2 gusting 6 34.4
2020-Aug-10 14:18 092 4 gusting 8 33.9
2020-Aug-10 14:09 095 3 gusting 14 33.9
2020-Aug-10 14:00 127 3 gusting 8 33.9
2020-Aug-10 13:51 099 3 gusting 8 33.9
2020-Aug-10 13:42 070 1 gusting 5 33.3
2020-Aug-10 13:33 095 3 gusting 6 33.3
2020-Aug-10 13:24 079 1 gusting 5 33.3
2020-Aug-10 13:15 071 3 gusting 6 33.3
2020-Aug-10 13:06 091 4 gusting 11 33.3
2020-Aug-10 12:57 098 3 gusting 8 33.3
2020-Aug-10 12:48 109 2 gusting 6 33.3
2020-Aug-10 12:39 128 3 gusting 8 32.8
2020-Aug-10 12:30 121 2 gusting 8 32.8
2020-Aug-10 12:21 117 4 gusting 8 33.3
2020-Aug-10 12:12 102 3 gusting 8 33.3
2020-Aug-10 12:03 098 3 gusting 8 33.3
2020-Aug-10 11:54 092 2 gusting 7 33.3
2020-Aug-10 11:45 101 4 gusting 7 33.3
2020-Aug-10 11:36 113 5 gusting 7 32.8
2020-Aug-10 11:27 100 3 gusting 7 32.8
2020-Aug-10 11:18 117 3 gusting 6 32.8
2020-Aug-10 11:09 099 3 gusting 7 32.8
2020-Aug-10 11:00 134 2 gusting 6 32.2
2020-Aug-10 10:51 156 2 gusting 6 32.2
2020-Aug-10 10:42 188 1 gusting 5 32.2
2020-Aug-10 10:33 115 0 gusting 5 31.7
2020-Aug-10 10:24 139 2 gusting 5 31.7
2020-Aug-10 10:15 185 1 gusting 4 31.7
2020-Aug-10 10:06 129 2 gusting 8 31.7
2020-Aug-10 09:57 130 3 gusting 8 31.7
2020-Aug-10 09:48 132 4 gusting 7 31.7
2020-Aug-10 09:39 148 3 gusting 6 31.7
2020-Aug-10 09:30 147 2 gusting 6 31.7
2020-Aug-10 09:21 132 3 gusting 7 31.1
2020-Aug-10 09:12 124 4 gusting 7 31.1
2020-Aug-10 09:03 134 3 gusting 6 30.6
2020-Aug-10 08:54 134 3 gusting 7 30.0
2020-Aug-10 08:45 154 3 gusting 7 30.0
2020-Aug-10 08:36 139 2 gusting 6 29.4
2020-Aug-10 08:27 145 3 gusting 7 28.9
2020-Aug-10 08:18 137 3 gusting 6 28.9
2020-Aug-10 08:09 142 3 gusting 6 28.3
2020-Aug-10 08:00 152 3 gusting 7 28.3
2020-Aug-10 07:51 164 1 gusting 5 27.8
2020-Aug-10 07:42 170 2 gusting 5 27.2
2020-Aug-10 07:33 163 1 gusting 4 26.7
2020-Aug-10 07:24 169 0 gusting 3 26.1
2020-Aug-10 07:15 171 0 gusting 3 25.6
2020-Aug-10 07:06 181 1 gusting 5 25.0
2020-Aug-10 06:57 174 1 gusting 4 24.4
2020-Aug-10 06:48 183 1 gusting 3 23.9
2020-Aug-10 06:39 181 1 gusting 3 23.9
2020-Aug-10 06:30 163 0 gusting 3 23.3
2020-Aug-10 06:21 166 0 gusting 2 22.8
2020-Aug-10 06:12 132 22.2
2020-Aug-10 06:03 152 21.7
2020-Aug-10 05:54 165 20.6
2020-Aug-10 05:45 182 19.4
2020-Aug-10 05:36 169 18.9
2020-Aug-10 05:27 137 18.9
2020-Aug-10 05:18 159 18.9
2020-Aug-10 05:09 131 18.9
2020-Aug-10 05:00 142 18.9
2020-Aug-10 04:51 112 18.9
2020-Aug-10 04:42 103 0 gusting 3 19.4
2020-Aug-10 04:33 093 0 gusting 4 19.4
2020-Aug-10 04:24 108 0 gusting 5 19.4
2020-Aug-10 04:15 095 1 gusting 5 19.4
2020-Aug-10 04:06 090 1 gusting 5 19.4
2020-Aug-10 03:57 080 1 gusting 3 19.4
2020-Aug-10 03:48 084 0 gusting 3 19.4
2020-Aug-10 03:39 067 0 gusting 3 19.4
2020-Aug-10 03:30 075 1 gusting 6 19.4
2020-Aug-10 03:21 057 1 gusting 5 18.9
2020-Aug-10 03:12 048 2 gusting 6 18.3
2020-Aug-10 03:03 068 18.9
2020-Aug-10 02:54 270 1 gusting 5 18.9
2020-Aug-10 02:45 276 4 gusting 6 18.9
2020-Aug-10 02:36 266 3 gusting 6 18.9
2020-Aug-10 02:27 271 3 gusting 5 18.9
2020-Aug-10 02:18 274 1 gusting 5 18.9
2020-Aug-10 02:09 280 2 gusting 5 19.4
2020-Aug-10 02:00 274 19.4
2020-Aug-10 01:51 19.4
2020-Aug-10 01:42 19.4
2020-Aug-10 01:33 19.4
2020-Aug-10 01:24 19.4
2020-Aug-10 01:15 19.4
2020-Aug-10 01:06 275 19.4
2020-Aug-10 00:57 294 19.4
2020-Aug-10 00:48 290 19.4
2020-Aug-10 00:39 271 20.0
2020-Aug-10 00:30 094 20.0
2020-Aug-10 00:21 083 20.0
2020-Aug-10 00:12 229 20.0
2020-Aug-10 00:03 171 20.0
2020-Aug-09 23:54 161 20.0
2020-Aug-09 23:45 193 20.0
2020-Aug-09 23:36 217 20.0
2020-Aug-09 23:27 133 20.0
2020-Aug-09 23:18 199 20.6
2020-Aug-09 23:09 167 20.6
2020-Aug-09 23:00 240 0 gusting 4 20.6
2020-Aug-09 22:51 207 0 gusting 3 20.6
2020-Aug-09 22:42 139 20.6
2020-Aug-09 22:33 116 2 gusting 6 20.6
2020-Aug-09 22:24 115 2 gusting 6 20.6
2020-Aug-09 22:15 117 4 gusting 9 20.6
2020-Aug-09 22:06 107 1 gusting 9 20.6
2020-Aug-09 21:57 249 2 gusting 5 21.1
2020-Aug-09 21:48 260 3 gusting 6 21.1
2020-Aug-09 21:39 267 3 gusting 6 21.7
2020-Aug-09 21:30 273 4 gusting 7 21.7
2020-Aug-09 21:21 274 4 gusting 7 22.2
2020-Aug-09 21:12 272 4 gusting 6 22.8
2020-Aug-09 21:03 279 4 gusting 6 23.3
2020-Aug-09 20:54 278 3 gusting 5 23.3
2020-Aug-09 20:45 277 4 gusting 6 23.9
2020-Aug-09 20:36 273 3 gusting 6 24.4
2020-Aug-09 20:27 272 3 gusting 5 24.4
2020-Aug-09 20:18 274 3 gusting 6 25.6
2020-Aug-09 20:09 270 3 gusting 5 25.6
2020-Aug-09 20:00 272 3 gusting 7 26.1
2020-Aug-09 19:51 277 3 gusting 5 26.7
2020-Aug-09 19:42 277 3 gusting 6 27.2
2020-Aug-09 19:33 302 3 gusting 6 27.2
2020-Aug-09 19:24 307 4 gusting 6 27.8
2020-Aug-09 19:15 312 4 gusting 8 28.3
2020-Aug-09 19:06 319 4 gusting 8 28.9
2020-Aug-09 18:57 319 5 gusting 7 29.4
2020-Aug-09 18:48 328 4 gusting 6 30.0
2020-Aug-09 18:39 305 3 gusting 5 30.6
2020-Aug-09 18:30 283 4 gusting 7 31.1
2020-Aug-09 18:21 288 4 gusting 7 31.1
2020-Aug-09 18:12 298 5 gusting 6 31.7
2020-Aug-09 18:03 322 6 gusting 8 31.7
2020-Aug-09 17:54 322 5 gusting 9 32.2
2020-Aug-09 17:45 322 6 gusting 9 32.2
2020-Aug-09 17:36 302 6 gusting 8 32.8
2020-Aug-09 17:27 294 6 gusting 11 33.3
2020-Aug-09 17:18 313 6 gusting 11 33.3
2020-Aug-09 17:09 301 6 gusting 10 34.4
2020-Aug-09 17:00 280 6 gusting 11 34.4
2020-Aug-09 16:51 289 6 gusting 10 35.0
2020-Aug-09 16:42 285 6 gusting 8 35.0
2020-Aug-09 16:33 282 6 gusting 10 35.6
2020-Aug-09 16:24 281 7 gusting 11 35.0
2020-Aug-09 16:15 281 7 gusting 15 35.6
2020-Aug-09 16:06 312 6 gusting 11 35.6
2020-Aug-09 15:57 297 7 gusting 13 35.6
2020-Aug-09 15:48 289 8 gusting 14 36.1
2020-Aug-09 15:39 289 7 gusting 13 36.7
2020-Aug-09 15:30 307 7 gusting 11 36.7
2020-Aug-09 15:21 295 7 gusting 13 37.2
2020-Aug-09 15:12 310 7 gusting 12 37.2
2020-Aug-09 15:03 279 7 gusting 13 37.2
2020-Aug-09 14:54 269 5 gusting 10 37.2
2020-Aug-09 14:45 276 5 gusting 7 37.2
2020-Aug-09 14:36 240 5 gusting 7 37.2
2020-Aug-09 14:27 207 4 gusting 7 36.7
2020-Aug-09 14:18 212 4 gusting 9 36.7
2020-Aug-09 14:09 222 4 gusting 9 36.7
2020-Aug-09 14:00 206 5 gusting 7 36.1
2020-Aug-09 13:51 200 3 gusting 7 36.1
2020-Aug-09 13:42 191 5 gusting 9 36.1
2020-Aug-09 13:33 182 4 gusting 8 36.1
2020-Aug-09 13:24 122 4 gusting 8 35.6
2020-Aug-09 13:15 134 3 gusting 10 35.6
2020-Aug-09 13:06 159 4 gusting 8 35.6
2020-Aug-09 12:57 105 5 gusting 10 35.6
2020-Aug-09 12:48 093 6 gusting 12 35.0
2020-Aug-09 12:39 093 4 gusting 11 35.0
2020-Aug-09 12:30 141 4 gusting 8 35.0
2020-Aug-09 12:21 123 6 gusting 11 35.0
2020-Aug-09 12:12 114 5 gusting 13 35.0
2020-Aug-09 12:03 132 6 gusting 13 35.0
2020-Aug-09 11:54 131 5 gusting 11 34.4
2020-Aug-09 11:45 108 6 gusting 13 34.4
2020-Aug-09 11:36 129 7 gusting 14 34.4
2020-Aug-09 11:27 120 6 gusting 13 34.4
2020-Aug-09 11:18 094 5 gusting 10 34.4
2020-Aug-09 11:09 085 4 gusting 10 33.9
2020-Aug-09 11:00 074 3 gusting 8 33.9
2020-Aug-09 10:51 080 3 gusting 11 33.9
2020-Aug-09 10:42 079 5 gusting 12 33.9
2020-Aug-09 10:33 086 5 gusting 11 33.3
2020-Aug-09 10:24 093 5 gusting 11 33.3
2020-Aug-09 10:15 086 3 gusting 7 33.3
2020-Aug-09 10:06 099 4 gusting 9 33.3
2020-Aug-09 09:57 089 4 gusting 11 33.3
2020-Aug-09 09:48 108 4 gusting 7 33.3
2020-Aug-09 09:39 103 4 gusting 8 32.8
2020-Aug-09 09:30 099 5 gusting 11 32.8
2020-Aug-09 09:21 107 4 gusting 9 32.2
2020-Aug-09 09:12 118 4 gusting 8 31.7
2020-Aug-09 09:03 148 2 gusting 4 30.6
2020-Aug-09 08:54 162 0 gusting 3 30.0
2020-Aug-09 08:45 171 0 gusting 2 29.4
2020-Aug-09 08:36 205 1 gusting 3 28.9
2020-Aug-09 08:27 195 1 gusting 3 28.3
2020-Aug-09 08:18 209 1 gusting 3 27.8
2020-Aug-09 08:09 186 0 gusting 3 27.2
2020-Aug-09 08:00 218 0 gusting 2 27.2
2020-Aug-09 07:51 124 26.7
2020-Aug-09 07:42 178 0 gusting 3 26.7
2020-Aug-09 07:33 155 1 gusting 3 26.1
2020-Aug-09 07:24 138 0 gusting 2 25.6
2020-Aug-09 07:15 356 24.4
2020-Aug-09 07:06 339 0 gusting 1 23.9
2020-Aug-09 06:57 327 23.3
2020-Aug-09 06:48 317 22.8
2020-Aug-09 06:39 271 22.2
2020-Aug-09 06:30 282 0 gusting 2 21.7
2020-Aug-09 06:21 284 1 gusting 3 21.1
2020-Aug-09 06:12 270 1 gusting 3 21.1
2020-Aug-09 06:03 270 0 gusting 3 20.6
2020-Aug-09 05:54 20.0
2020-Aug-09 05:45 19.4
2020-Aug-09 05:36 18.9
2020-Aug-09 05:27 18.3
2020-Aug-09 05:18 18.9
2020-Aug-09 05:09 18.9
2020-Aug-09 05:00 18.9
2020-Aug-09 04:51 18.9
2020-Aug-09 04:42 18.9
2020-Aug-09 04:33 18.9
2020-Aug-09 04:24 18.9
2020-Aug-09 04:15 18.9
2020-Aug-09 04:06 19.4
2020-Aug-09 03:57 19.4
2020-Aug-09 03:48 19.4
2020-Aug-09 03:39 328 0 gusting 2 19.4
2020-Aug-09 03:30 319 1 gusting 3 19.4
2020-Aug-09 03:21 324 2 gusting 3 19.4
2020-Aug-09 03:12 322 1 gusting 3 19.4
2020-Aug-09 03:03 325 2 gusting 3 19.4
2020-Aug-09 02:54 329 1 gusting 2 19.4
2020-Aug-09 02:45 325 1 gusting 3 19.4
2020-Aug-09 02:36 325 1 gusting 2 20.0
2020-Aug-09 02:27 327 1 gusting 3 20.0
2020-Aug-09 02:18 320 2 gusting 3 20.0
2020-Aug-09 02:09 319 1 gusting 2 20.0
2020-Aug-09 02:00 327 1 gusting 3 20.0
2020-Aug-09 01:51 335 2 gusting 4 20.6
2020-Aug-09 01:42 330 2 gusting 4 20.6
2020-Aug-09 01:33 317 2 gusting 4 20.6
2020-Aug-09 01:24 317 2 gusting 3 20.6
2020-Aug-09 01:15 317 2 gusting 3 20.6
2020-Aug-09 01:06 308 2 gusting 3 20.6
2020-Aug-09 00:57 312 2 gusting 3 20.6
2020-Aug-09 00:48 317 1 gusting 3 20.6
2020-Aug-09 00:39 294 1 gusting 2 20.6
2020-Aug-09 00:30 272 0 gusting 2 21.1
2020-Aug-09 00:21 248 0 gusting 2 21.1
2020-Aug-09 00:12 258 1 gusting 2 21.7
2020-Aug-09 00:03 277 1 gusting 3 21.7
2020-Aug-08 23:54 299 2 gusting 4 21.7
2020-Aug-08 23:45 316 2 gusting 3 21.7
2020-Aug-08 23:36 329 2 gusting 4 21.7
2020-Aug-08 23:27 321 2 gusting 4 21.7
2020-Aug-08 23:18 335 2 gusting 3 22.2
2020-Aug-08 23:09 319 1 gusting 3 22.2
2020-Aug-08 23:00 325 0 gusting 1 22.2
2020-Aug-08 22:51 353 1 gusting 2 22.8
2020-Aug-08 22:42 333 2 gusting 3 22.8
2020-Aug-08 22:33 342 2 gusting 3 23.3
2020-Aug-08 22:24 008 1 gusting 3 23.3
2020-Aug-08 22:15 006 0 gusting 3 23.3
2020-Aug-08 22:06 024 0 gusting 3 23.9
2020-Aug-08 21:57 013 1 gusting 4 23.9
2020-Aug-08 21:48 013 2 gusting 4 23.9
2020-Aug-08 21:39 015 3 gusting 5 24.4
2020-Aug-08 21:30 014 2 gusting 5 24.4
2020-Aug-08 21:21 352 3 gusting 6 24.4
2020-Aug-08 21:12 003 3 gusting 5 23.9
2020-Aug-08 21:03 359 2 gusting 4 23.9
2020-Aug-08 20:54 012 0 gusting 3 23.9
2020-Aug-08 20:45 318 23.9
2020-Aug-08 20:36 320 1 gusting 3 24.4
2020-Aug-08 20:27 269 0 gusting 2 24.4
2020-Aug-08 20:18 298 24.4
2020-Aug-08 20:09 013 2 gusting 5 24.4
2020-Aug-08 20:00 001 2 gusting 6 24.4
2020-Aug-08 19:51 065 0 gusting 3 24.4
2020-Aug-08 19:42 049 24.4
2020-Aug-08 19:33 006 0 gusting 3 24.4
2020-Aug-08 19:24 341 0 gusting 3 24.4
2020-Aug-08 19:15 091 24.4
2020-Aug-08 19:06 097 1 gusting 2 24.4